Forside
METAR-TAF:

METAR-TAF

Lufthavne :

Richard B. Helgeson Airport

Two Harbors, Minnesota, USA

Breddekreds: 47-03N, længdekreds: 091-45W, højde: 328 m

Aktuelle vejr

Denne rapport blev lavet for 32 minutter siden, kl. 06:15 UTC
Vind 4 kt fra vestsydvest
Temperatur -2°C
Fugtighed 80%
Tryk 1006 hPa
Sigt: 16.1 km
skyfri

METAR: KTWM 290615Z AUTO 25004KT 10SM CLR M02/M05 A2972 RMK AO2

Tid: 00:47 (06:47 UTC)


TAF: fraværende

Vejrobservationer og prognoser fra mere end 4000 lufthavne (METAR og TAF).

De gule og røde prikker repræsenterer de meteorologiske stationer.

Flyt musen over at se navnet på stationen.

Så klik over at se vejr observationer og prognoser.

At skifte det kort: Klik på de grønne knapper med et sort kors for at zoome ind; på den grønne knap med en bindestreg for at zoome ud; eller på de grønne pile for tilstødende kort.


METAR-TAF: